sensor_id;sensor_type;location;lat;lon;timestamp;temperature;humidity
13606;DHT22;6874;52.084;5.090;2024-02-16T00:00:17;11.30;99.90
13606;DHT22;6874;52.084;5.090;2024-02-16T00:02:43;11.30;99.90
13606;DHT22;6874;52.084;5.090;2024-02-16T00:05:10;11.30;99.90
13606;DHT22;6874;52.084;5.090;2024-02-16T00:07:38;11.30;99.90
13606;DHT22;6874;52.084;5.090;2024-02-16T00:10:05;11.20;99.90
13606;DHT22;6874;52.084;5.090;2024-02-16T00:12:32;11.20;99.90
13606;DHT22;6874;52.084;5.090;2024-02-16T00:14:58;11.20;99.90
13606;DHT22;6874;52.084;5.090;2024-02-16T00:17:24;11.20;99.90
13606;DHT22;6874;52.084;5.090;2024-02-16T00:19:53;11.10;99.90
13606;DHT22;6874;52.084;5.090;2024-02-16T00:22:18;11.20;99.90
13606;DHT22;6874;52.084;5.090;2024-02-16T00:24:44;11.20;99.90
13606;DHT22;6874;52.084;5.090;2024-02-16T00:27:10;11.10;99.90
13606;DHT22;6874;52.084;5.090;2024-02-16T00:29:35;11.10;99.90
13606;DHT22;6874;52.084;5.090;2024-02-16T00:32:02;11.10;99.90
13606;DHT22;6874;52.084;5.090;2024-02-16T00:34:27;11.10;99.90
13606;DHT22;6874;52.084;5.090;2024-02-16T00:36:53;11.10;99.90
13606;DHT22;6874;52.084;5.090;2024-02-16T00:39:18;11.10;99.90
13606;DHT22;6874;52.084;5.090;2024-02-16T00:41:44;11.10;99.90
13606;DHT22;6874;52.084;5.090;2024-02-16T00:44:11;11.00;99.90
13606;DHT22;6874;52.084;5.090;2024-02-16T00:46:37;11.10;99.90
13606;DHT22;6874;52.084;5.090;2024-02-16T00:49:03;11.10;99.90
13606;DHT22;6874;52.084;5.090;2024-02-16T00:51:28;11.00;99.90
13606;DHT22;6874;52.084;5.090;2024-02-16T00:53:54;11.00;99.90
13606;DHT22;6874;52.084;5.090;2024-02-16T00:56:20;11.00;99.90
13606;DHT22;6874;52.084;5.090;2024-02-16T00:58:46;11.00;99.90
13606;DHT22;6874;52.084;5.090;2024-02-16T01:01:11;11.00;99.90
13606;DHT22;6874;52.084;5.090;2024-02-16T01:03:40;10.90;99.90
13606;DHT22;6874;52.084;5.090;2024-02-16T01:06:06;11.00;99.90
13606;DHT22;6874;52.084;5.090;2024-02-16T01:08:34;11.00;99.90
13606;DHT22;6874;52.084;5.090;2024-02-16T01:10:59;11.00;99.90
13606;DHT22;6874;52.084;5.090;2024-02-16T01:13:25;11.00;99.90
13606;DHT22;6874;52.084;5.090;2024-02-16T01:15:50;10.90;99.90
13606;DHT22;6874;52.084;5.090;2024-02-16T01:18:16;10.90;99.90
13606;DHT22;6874;52.084;5.090;2024-02-16T01:20:41;10.90;99.90
13606;DHT22;6874;52.084;5.090;2024-02-16T01:23:07;10.90;99.90
13606;DHT22;6874;52.084;5.090;2024-02-16T01:25:33;10.90;99.90
13606;DHT22;6874;52.084;5.090;2024-02-16T01:27:59;10.80;99.90
13606;DHT22;6874;52.084;5.090;2024-02-16T01:30:24;10.90;99.90
13606;DHT22;6874;52.084;5.090;2024-02-16T01:32:50;10.80;99.90
13606;DHT22;6874;52.084;5.090;2024-02-16T01:35:16;10.90;99.90
13606;DHT22;6874;52.084;5.090;2024-02-16T01:37:42;11.00;99.90
13606;DHT22;6874;52.084;5.090;2024-02-16T01:40:09;10.80;99.90
13606;DHT22;6874;52.084;5.090;2024-02-16T01:42:43;10.90;99.90
13606;DHT22;6874;52.084;5.090;2024-02-16T01:45:09;10.80;99.90
13606;DHT22;6874;52.084;5.090;2024-02-16T01:47:38;10.80;99.90
13606;DHT22;6874;52.084;5.090;2024-02-16T01:50:05;10.80;99.90
13606;DHT22;6874;52.084;5.090;2024-02-16T01:52:31;10.80;99.90
13606;DHT22;6874;52.084;5.090;2024-02-16T01:54:59;10.80;99.90
13606;DHT22;6874;52.084;5.090;2024-02-16T01:57:25;10.80;99.90
13606;DHT22;6874;52.084;5.090;2024-02-16T01:59:51;10.80;99.90
13606;DHT22;6874;52.084;5.090;2024-02-16T02:02:17;10.80;99.90
13606;DHT22;6874;52.084;5.090;2024-02-16T02:04:42;10.80;99.90
13606;DHT22;6874;52.084;5.090;2024-02-16T02:07:13;10.80;99.90
13606;DHT22;6874;52.084;5.090;2024-02-16T02:09:38;10.80;99.90
13606;DHT22;6874;52.084;5.090;2024-02-16T02:12:04;10.80;99.90
13606;DHT22;6874;52.084;5.090;2024-02-16T02:14:30;10.80;99.90
13606;DHT22;6874;52.084;5.090;2024-02-16T02:16:55;10.80;99.90
13606;DHT22;6874;52.084;5.090;2024-02-16T02:19:21;10.70;99.90
13606;DHT22;6874;52.084;5.090;2024-02-16T02:21:47;10.80;99.90
13606;DHT22;6874;52.084;5.090;2024-02-16T02:24:12;10.70;99.90
13606;DHT22;6874;52.084;5.090;2024-02-16T02:26:39;10.80;99.90
13606;DHT22;6874;52.084;5.090;2024-02-16T02:29:05;10.70;99.90
13606;DHT22;6874;52.084;5.090;2024-02-16T02:31:30;10.70;99.90
13606;DHT22;6874;52.084;5.090;2024-02-16T02:33:56;10.70;99.90
13606;DHT22;6874;52.084;5.090;2024-02-16T02:36:22;10.70;99.90
13606;DHT22;6874;52.084;5.090;2024-02-16T02:38:48;10.70;99.90
13606;DHT22;6874;52.084;5.090;2024-02-16T02:41:16;10.70;99.90
13606;DHT22;6874;52.084;5.090;2024-02-16T02:43:44;10.80;99.90
13606;DHT22;6874;52.084;5.090;2024-02-16T02:46:17;10.70;99.90
13606;DHT22;6874;52.084;5.090;2024-02-16T02:48:44;10.70;99.90
13606;DHT22;6874;52.084;5.090;2024-02-16T02:51:10;10.70;99.90
13606;DHT22;6874;52.084;5.090;2024-02-16T02:53:35;10.70;99.90
13606;DHT22;6874;52.084;5.090;2024-02-16T02:56:02;10.70;99.90
13606;DHT22;6874;52.084;5.090;2024-02-16T02:58:28;10.70;99.90
13606;DHT22;6874;52.084;5.090;2024-02-16T03:00:54;10.70;99.90
13606;DHT22;6874;52.084;5.090;2024-02-16T03:03:20;10.60;99.90
13606;DHT22;6874;52.084;5.090;2024-02-16T03:05:45;10.70;99.90
13606;DHT22;6874;52.084;5.090;2024-02-16T03:08:11;10.60;99.90
13606;DHT22;6874;52.084;5.090;2024-02-16T03:10:37;10.60;99.90
13606;DHT22;6874;52.084;5.090;2024-02-16T03:13:03;10.60;99.90
13606;DHT22;6874;52.084;5.090;2024-02-16T03:15:29;10.60;99.90
13606;DHT22;6874;52.084;5.090;2024-02-16T03:17:55;10.60;99.90
13606;DHT22;6874;52.084;5.090;2024-02-16T03:20:20;10.60;99.90
13606;DHT22;6874;52.084;5.090;2024-02-16T03:22:46;10.60;99.90
13606;DHT22;6874;52.084;5.090;2024-02-16T03:25:12;10.50;99.90
13606;DHT22;6874;52.084;5.090;2024-02-16T03:27:38;10.60;99.90
13606;DHT22;6874;52.084;5.090;2024-02-16T03:30:04;10.50;99.90
13606;DHT22;6874;52.084;5.090;2024-02-16T03:32:31;10.50;99.90
13606;DHT22;6874;52.084;5.090;2024-02-16T03:34:57;10.50;99.90
13606;DHT22;6874;52.084;5.090;2024-02-16T03:37:24;10.50;99.90
13606;DHT22;6874;52.084;5.090;2024-02-16T03:39:49;10.50;99.90
13606;DHT22;6874;52.084;5.090;2024-02-16T03:42:16;10.50;99.90
13606;DHT22;6874;52.084;5.090;2024-02-16T03:44:43;10.40;99.90
13606;DHT22;6874;52.084;5.090;2024-02-16T03:47:09;10.40;99.90
13606;DHT22;6874;52.084;5.090;2024-02-16T03:49:34;10.40;99.90
13606;DHT22;6874;52.084;5.090;2024-02-16T03:52:00;10.50;99.90
13606;DHT22;6874;52.084;5.090;2024-02-16T03:54:25;10.40;99.90
13606;DHT22;6874;52.084;5.090;2024-02-16T03:56:54;10.40;99.90
13606;DHT22;6874;52.084;5.090;2024-02-16T03:59:20;10.40;99.90
13606;DHT22;6874;52.084;5.090;2024-02-16T04:01:46;10.40;99.90
13606;DHT22;6874;52.084;5.090;2024-02-16T04:04:11;10.40;99.90
13606;DHT22;6874;52.084;5.090;2024-02-16T04:06:38;10.40;99.90
13606;DHT22;6874;52.084;5.090;2024-02-16T04:09:04;10.40;99.90
13606;DHT22;6874;52.084;5.090;2024-02-16T04:11:32;10.40;99.90
13606;DHT22;6874;52.084;5.090;2024-02-16T04:13:58;10.40;99.90
13606;DHT22;6874;52.084;5.090;2024-02-16T04:16:23;10.40;99.90
13606;DHT22;6874;52.084;5.090;2024-02-16T04:18:50;10.40;99.90
13606;DHT22;6874;52.084;5.090;2024-02-16T04:21:16;10.40;99.90
13606;DHT22;6874;52.084;5.090;2024-02-16T04:23:42;10.30;99.90
13606;DHT22;6874;52.084;5.090;2024-02-16T04:26:08;10.30;99.90
13606;DHT22;6874;52.084;5.090;2024-02-16T04:28:34;10.30;99.90
13606;DHT22;6874;52.084;5.090;2024-02-16T04:31:00;10.30;99.90
13606;DHT22;6874;52.084;5.090;2024-02-16T04:33:25;10.30;99.90
13606;DHT22;6874;52.084;5.090;2024-02-16T04:35:51;10.30;99.90
13606;DHT22;6874;52.084;5.090;2024-02-16T04:38:17;10.20;99.90
13606;DHT22;6874;52.084;5.090;2024-02-16T04:40:43;10.30;99.90
13606;DHT22;6874;52.084;5.090;2024-02-16T04:43:08;10.20;99.90
13606;DHT22;6874;52.084;5.090;2024-02-16T04:45:35;10.20;99.90
13606;DHT22;6874;52.084;5.090;2024-02-16T04:48:07;10.20;99.90
13606;DHT22;6874;52.084;5.090;2024-02-16T04:50:33;10.20;99.90
13606;DHT22;6874;52.084;5.090;2024-02-16T04:52:59;10.20;99.90
13606;DHT22;6874;52.084;5.090;2024-02-16T04:55:27;10.20;99.90
13606;DHT22;6874;52.084;5.090;2024-02-16T04:57:54;10.20;99.90
13606;DHT22;6874;52.084;5.090;2024-02-16T05:00:19;10.20;99.90
13606;DHT22;6874;52.084;5.090;2024-02-16T05:02:46;10.20;99.90
13606;DHT22;6874;52.084;5.090;2024-02-16T05:05:12;10.10;99.90
13606;DHT22;6874;52.084;5.090;2024-02-16T05:07:37;10.10;99.90
13606;DHT22;6874;52.084;5.090;2024-02-16T05:10:03;10.10;99.90
13606;DHT22;6874;52.084;5.090;2024-02-16T05:12:29;10.10;99.90
13606;DHT22;6874;52.084;5.090;2024-02-16T05:14:54;10.10;99.90
13606;DHT22;6874;52.084;5.090;2024-02-16T05:17:20;10.10;99.90
13606;DHT22;6874;52.084;5.090;2024-02-16T05:19:47;10.10;99.90
13606;DHT22;6874;52.084;5.090;2024-02-16T05:22:13;10.10;99.90
13606;DHT22;6874;52.084;5.090;2024-02-16T05:24:39;10.10;99.90
13606;DHT22;6874;52.084;5.090;2024-02-16T05:27:05;10.10;99.90
13606;DHT22;6874;52.084;5.090;2024-02-16T05:29:31;10.10;99.90
13606;DHT22;6874;52.084;5.090;2024-02-16T05:31:56;10.00;99.90
13606;DHT22;6874;52.084;5.090;2024-02-16T05:34:22;10.10;99.90
13606;DHT22;6874;52.084;5.090;2024-02-16T05:36:49;10.00;99.90
13606;DHT22;6874;52.084;5.090;2024-02-16T05:39:15;10.00;99.90
13606;DHT22;6874;52.084;5.090;2024-02-16T05:41:52;10.10;99.90
13606;DHT22;6874;52.084;5.090;2024-02-16T05:44:18;10.10;99.90
13606;DHT22;6874;52.084;5.090;2024-02-16T05:46:45;10.10;99.90
13606;DHT22;6874;52.084;5.090;2024-02-16T05:49:10;10.00;99.90
13606;DHT22;6874;52.084;5.090;2024-02-16T05:51:37;10.00;99.90
13606;DHT22;6874;52.084;5.090;2024-02-16T05:54:03;10.00;99.90
13606;DHT22;6874;52.084;5.090;2024-02-16T05:56:28;10.00;99.90
13606;DHT22;6874;52.084;5.090;2024-02-16T05:58:54;10.00;99.90
13606;DHT22;6874;52.084;5.090;2024-02-16T06:01:20;10.00;99.90
13606;DHT22;6874;52.084;5.090;2024-02-16T06:03:45;10.00;99.90
13606;DHT22;6874;52.084;5.090;2024-02-16T06:06:11;10.00;99.90
13606;DHT22;6874;52.084;5.090;2024-02-16T06:08:36;10.00;99.90
13606;DHT22;6874;52.084;5.090;2024-02-16T06:11:02;10.00;99.90
13606;DHT22;6874;52.084;5.090;2024-02-16T06:13:28;10.10;99.90
13606;DHT22;6874;52.084;5.090;2024-02-16T06:15:54;10.10;99.90
13606;DHT22;6874;52.084;5.090;2024-02-16T06:18:20;10.00;99.90
13606;DHT22;6874;52.084;5.090;2024-02-16T06:20:46;10.10;99.90
13606;DHT22;6874;52.084;5.090;2024-02-16T06:23:12;10.00;99.90
13606;DHT22;6874;52.084;5.090;2024-02-16T06:25:37;10.10;99.90
13606;DHT22;6874;52.084;5.090;2024-02-16T06:28:03;10.00;99.90
13606;DHT22;6874;52.084;5.090;2024-02-16T06:30:30;10.10;99.90
13606;DHT22;6874;52.084;5.090;2024-02-16T06:32:55;10.10;99.90
13606;DHT22;6874;52.084;5.090;2024-02-16T06:35:21;10.00;99.90
13606;DHT22;6874;52.084;5.090;2024-02-16T06:37:46;10.10;99.90
13606;DHT22;6874;52.084;5.090;2024-02-16T06:40:12;10.10;99.90
13606;DHT22;6874;52.084;5.090;2024-02-16T06:42:50;10.10;99.90
13606;DHT22;6874;52.084;5.090;2024-02-16T06:45:33;10.10;99.90
13606;DHT22;6874;52.084;5.090;2024-02-16T06:47:59;10.10;99.90
13606;DHT22;6874;52.084;5.090;2024-02-16T06:50:24;10.10;99.90
13606;DHT22;6874;52.084;5.090;2024-02-16T06:52:50;10.10;99.90
13606;DHT22;6874;52.084;5.090;2024-02-16T06:55:15;10.10;99.90
13606;DHT22;6874;52.084;5.090;2024-02-16T06:57:43;10.10;99.90
13606;DHT22;6874;52.084;5.090;2024-02-16T07:00:10;10.10;99.90
13606;DHT22;6874;52.084;5.090;2024-02-16T07:02:36;10.10;99.90
13606;DHT22;6874;52.084;5.090;2024-02-16T07:05:01;10.10;99.90
13606;DHT22;6874;52.084;5.090;2024-02-16T07:07:27;10.10;99.90
13606;DHT22;6874;52.084;5.090;2024-02-16T07:09:52;10.10;99.90
13606;DHT22;6874;52.084;5.090;2024-02-16T07:12:18;10.10;99.90
13606;DHT22;6874;52.084;5.090;2024-02-16T07:14:44;10.10;99.90
13606;DHT22;6874;52.084;5.090;2024-02-16T07:17:12;10.10;99.90
13606;DHT22;6874;52.084;5.090;2024-02-16T07:19:37;10.10;99.90
13606;DHT22;6874;52.084;5.090;2024-02-16T07:22:03;10.10;99.90
13606;DHT22;6874;52.084;5.090;2024-02-16T07:24:31;10.10;99.90
13606;DHT22;6874;52.084;5.090;2024-02-16T07:26:57;10.10;99.90
13606;DHT22;6874;52.084;5.090;2024-02-16T07:29:22;10.10;99.90
13606;DHT22;6874;52.084;5.090;2024-02-16T07:31:48;10.10;99.90
13606;DHT22;6874;52.084;5.090;2024-02-16T07:34:16;10.10;99.90
13606;DHT22;6874;52.084;5.090;2024-02-16T07:36:42;10.10;99.90
13606;DHT22;6874;52.084;5.090;2024-02-16T07:39:07;10.10;99.90
13606;DHT22;6874;52.084;5.090;2024-02-16T07:41:33;10.10;99.90
13606;DHT22;6874;52.084;5.090;2024-02-16T07:43:58;10.10;99.90
13606;DHT22;6874;52.084;5.090;2024-02-16T07:46:24;10.10;99.90
13606;DHT22;6874;52.084;5.090;2024-02-16T07:48:49;10.20;99.90
13606;DHT22;6874;52.084;5.090;2024-02-16T07:51:15;10.20;99.90
13606;DHT22;6874;52.084;5.090;2024-02-16T07:53:40;10.20;99.90
13606;DHT22;6874;52.084;5.090;2024-02-16T07:56:14;10.20;99.90
13606;DHT22;6874;52.084;5.090;2024-02-16T07:58:41;10.30;99.90
13606;DHT22;6874;52.084;5.090;2024-02-16T08:01:08;10.30;99.90
13606;DHT22;6874;52.084;5.090;2024-02-16T08:03:35;10.20;99.90
13606;DHT22;6874;52.084;5.090;2024-02-16T08:06:01;10.30;99.90
13606;DHT22;6874;52.084;5.090;2024-02-16T08:08:26;10.30;99.90
13606;DHT22;6874;52.084;5.090;2024-02-16T08:10:52;10.30;99.90
13606;DHT22;6874;52.084;5.090;2024-02-16T08:13:18;10.30;99.90
13606;DHT22;6874;52.084;5.090;2024-02-16T08:15:43;10.30;99.90
13606;DHT22;6874;52.084;5.090;2024-02-16T08:18:09;10.30;99.90
13606;DHT22;6874;52.084;5.090;2024-02-16T08:20:37;10.40;99.90
13606;DHT22;6874;52.084;5.090;2024-02-16T08:23:02;10.40;99.90
13606;DHT22;6874;52.084;5.090;2024-02-16T08:25:28;10.40;99.90
13606;DHT22;6874;52.084;5.090;2024-02-16T08:27:55;10.40;99.90
13606;DHT22;6874;52.084;5.090;2024-02-16T08:30:21;10.40;99.90
13606;DHT22;6874;52.084;5.090;2024-02-16T08:32:47;10.50;99.90
13606;DHT22;6874;52.084;5.090;2024-02-16T08:35:13;10.50;99.90
13606;DHT22;6874;52.084;5.090;2024-02-16T08:37:40;10.50;99.90
13606;DHT22;6874;52.084;5.090;2024-02-16T08:40:06;10.50;99.90
13606;DHT22;6874;52.084;5.090;2024-02-16T08:42:31;10.50;99.90
13606;DHT22;6874;52.084;5.090;2024-02-16T08:44:57;10.60;99.90
13606;DHT22;6874;52.084;5.090;2024-02-16T08:47:25;10.60;99.90
13606;DHT22;6874;52.084;5.090;2024-02-16T08:49:51;10.60;99.90
13606;DHT22;6874;52.084;5.090;2024-02-16T08:52:16;10.60;99.90
13606;DHT22;6874;52.084;5.090;2024-02-16T08:54:43;10.70;99.90
13606;DHT22;6874;52.084;5.090;2024-02-16T08:57:09;10.70;99.90
13606;DHT22;6874;52.084;5.090;2024-02-16T08:59:35;10.70;99.90
13606;DHT22;6874;52.084;5.090;2024-02-16T09:02:00;10.70;99.90
13606;DHT22;6874;52.084;5.090;2024-02-16T09:04:26;10.70;99.90
13606;DHT22;6874;52.084;5.090;2024-02-16T09:06:52;10.80;99.90
13606;DHT22;6874;52.084;5.090;2024-02-16T09:09:20;10.80;99.90
13606;DHT22;6874;52.084;5.090;2024-02-16T09:11:46;10.80;99.90
13606;DHT22;6874;52.084;5.090;2024-02-16T09:14:11;10.80;99.90
13606;DHT22;6874;52.084;5.090;2024-02-16T09:16:37;10.80;99.90
13606;DHT22;6874;52.084;5.090;2024-02-16T09:19:02;10.80;99.90
13606;DHT22;6874;52.084;5.090;2024-02-16T09:21:28;10.90;99.90
13606;DHT22;6874;52.084;5.090;2024-02-16T09:23:55;10.90;99.90
13606;DHT22;6874;52.084;5.090;2024-02-16T09:26:24;10.90;99.90
13606;DHT22;6874;52.084;5.090;2024-02-16T09:28:52;10.90;99.90
13606;DHT22;6874;52.084;5.090;2024-02-16T09:31:18;10.90;99.90
13606;DHT22;6874;52.084;5.090;2024-02-16T09:33:44;10.90;99.90
13606;DHT22;6874;52.084;5.090;2024-02-16T09:36:10;11.10;99.90
13606;DHT22;6874;52.084;5.090;2024-02-16T09:38:36;11.00;99.90
13606;DHT22;6874;52.084;5.090;2024-02-16T09:41:01;11.00;99.90
13606;DHT22;6874;52.084;5.090;2024-02-16T09:43:28;11.00;99.90
13606;DHT22;6874;52.084;5.090;2024-02-16T09:45:58;11.00;99.90
13606;DHT22;6874;52.084;5.090;2024-02-16T09:48:26;11.10;99.90
13606;DHT22;6874;52.084;5.090;2024-02-16T09:50:56;11.10;99.90
13606;DHT22;6874;52.084;5.090;2024-02-16T09:53:25;11.10;99.90
13606;DHT22;6874;52.084;5.090;2024-02-16T09:55:52;11.10;99.90
13606;DHT22;6874;52.084;5.090;2024-02-16T09:58:18;11.10;99.90
13606;DHT22;6874;52.084;5.090;2024-02-16T10:00:51;11.10;99.90
13606;DHT22;6874;52.084;5.090;2024-02-16T10:03:28;11.10;99.90
13606;DHT22;6874;52.084;5.090;2024-02-16T10:06:12;11.10;99.90
13606;DHT22;6874;52.084;5.090;2024-02-16T10:08:51;11.10;99.90
13606;DHT22;6874;52.084;5.090;2024-02-16T10:11:19;11.20;99.90
13606;DHT22;6874;52.084;5.090;2024-02-16T10:14:13;11.20;99.90
13606;DHT22;6874;52.084;5.090;2024-02-16T10:16:39;11.20;99.90
13606;DHT22;6874;52.084;5.090;2024-02-16T10:19:08;11.20;99.90
13606;DHT22;6874;52.084;5.090;2024-02-16T10:21:36;11.20;99.90
13606;DHT22;6874;52.084;5.090;2024-02-16T10:24:05;11.20;99.90
13606;DHT22;6874;52.084;5.090;2024-02-16T10:26:33;11.20;99.90
13606;DHT22;6874;52.084;5.090;2024-02-16T10:29:03;11.20;99.90
13606;DHT22;6874;52.084;5.090;2024-02-16T10:31:30;11.20;99.90
13606;DHT22;6874;52.084;5.090;2024-02-16T10:33:59;11.20;99.90
13606;DHT22;6874;52.084;5.090;2024-02-16T10:36:28;11.20;99.90
13606;DHT22;6874;52.084;5.090;2024-02-16T10:38:56;11.20;99.90
13606;DHT22;6874;52.084;5.090;2024-02-16T10:41:27;11.20;99.90
13606;DHT22;6874;52.084;5.090;2024-02-16T10:43:55;11.20;99.90
13606;DHT22;6874;52.084;5.090;2024-02-16T10:46:22;11.20;99.90
13606;DHT22;6874;52.084;5.090;2024-02-16T10:48:48;11.20;99.90
13606;DHT22;6874;52.084;5.090;2024-02-16T10:51:15;11.20;99.90
13606;DHT22;6874;52.084;5.090;2024-02-16T10:53:42;11.20;99.90
13606;DHT22;6874;52.084;5.090;2024-02-16T10:56:08;11.20;99.90
13606;DHT22;6874;52.084;5.090;2024-02-16T10:58:37;11.20;99.90
13606;DHT22;6874;52.084;5.090;2024-02-16T11:01:09;11.20;99.90
13606;DHT22;6874;52.084;5.090;2024-02-16T11:03:38;11.20;99.90
13606;DHT22;6874;52.084;5.090;2024-02-16T11:06:16;11.20;99.90
13606;DHT22;6874;52.084;5.090;2024-02-16T11:08:42;11.20;99.90
13606;DHT22;6874;52.084;5.090;2024-02-16T11:11:08;11.20;99.90
13606;DHT22;6874;52.084;5.090;2024-02-16T11:13:37;11.20;99.90
13606;DHT22;6874;52.084;5.090;2024-02-16T11:16:05;11.30;99.90
13606;DHT22;6874;52.084;5.090;2024-02-16T11:18:36;11.30;99.90
13606;DHT22;6874;52.084;5.090;2024-02-16T11:21:03;11.30;99.90
13606;DHT22;6874;52.084;5.090;2024-02-16T11:23:30;11.30;99.90
13606;DHT22;6874;52.084;5.090;2024-02-16T11:26:03;11.30;99.90
13606;DHT22;6874;52.084;5.090;2024-02-16T11:28:34;11.30;99.90
13606;DHT22;6874;52.084;5.090;2024-02-16T11:31:01;11.30;99.90
13606;DHT22;6874;52.084;5.090;2024-02-16T11:33:26;11.30;99.90
13606;DHT22;6874;52.084;5.090;2024-02-16T11:35:56;11.30;99.90
13606;DHT22;6874;52.084;5.090;2024-02-16T11:38:23;11.30;99.90
13606;DHT22;6874;52.084;5.090;2024-02-16T11:40:59;11.30;99.90
13606;DHT22;6874;52.084;5.090;2024-02-16T11:43:26;11.30;99.90
13606;DHT22;6874;52.084;5.090;2024-02-16T11:45:52;11.30;99.90
13606;DHT22;6874;52.084;5.090;2024-02-16T11:48:22;11.40;99.90
13606;DHT22;6874;52.084;5.090;2024-02-16T11:50:49;11.40;99.90
13606;DHT22;6874;52.084;5.090;2024-02-16T11:53:18;11.40;99.90
13606;DHT22;6874;52.084;5.090;2024-02-16T11:55:48;11.40;99.90
13606;DHT22;6874;52.084;5.090;2024-02-16T11:58:18;11.40;99.90
13606;DHT22;6874;52.084;5.090;2024-02-16T12:00:45;11.40;99.90
13606;DHT22;6874;52.084;5.090;2024-02-16T12:03:11;11.40;99.90
13606;DHT22;6874;52.084;5.090;2024-02-16T12:05:37;11.40;99.90
13606;DHT22;6874;52.084;5.090;2024-02-16T12:08:02;11.40;99.90
13606;DHT22;6874;52.084;5.090;2024-02-16T12:10:29;11.40;99.90
13606;DHT22;6874;52.084;5.090;2024-02-16T12:12:54;11.40;99.90
13606;DHT22;6874;52.084;5.090;2024-02-16T12:15:22;11.40;99.90
13606;DHT22;6874;52.084;5.090;2024-02-16T12:17:58;11.40;99.90
13606;DHT22;6874;52.084;5.090;2024-02-16T12:20:25;11.50;99.90
13606;DHT22;6874;52.084;5.090;2024-02-16T12:22:50;11.50;99.90
13606;DHT22;6874;52.084;5.090;2024-02-16T12:25:16;11.40;99.90
13606;DHT22;6874;52.084;5.090;2024-02-16T12:27:42;11.50;99.90
13606;DHT22;6874;52.084;5.090;2024-02-16T12:30:08;11.50;99.90
13606;DHT22;6874;52.084;5.090;2024-02-16T12:32:33;11.50;99.90
13606;DHT22;6874;52.084;5.090;2024-02-16T12:34:59;11.50;99.90
13606;DHT22;6874;52.084;5.090;2024-02-16T12:37:25;11.50;99.90
13606;DHT22;6874;52.084;5.090;2024-02-16T12:39:50;11.50;99.90
13606;DHT22;6874;52.084;5.090;2024-02-16T12:42:16;11.50;99.90
13606;DHT22;6874;52.084;5.090;2024-02-16T12:44:41;11.60;99.90
13606;DHT22;6874;52.084;5.090;2024-02-16T12:47:07;11.60;99.90
13606;DHT22;6874;52.084;5.090;2024-02-16T12:49:32;11.60;99.90
13606;DHT22;6874;52.084;5.090;2024-02-16T12:52:01;11.60;99.90
13606;DHT22;6874;52.084;5.090;2024-02-16T12:54:26;11.60;99.90
13606;DHT22;6874;52.084;5.090;2024-02-16T12:56:52;11.70;99.90
13606;DHT22;6874;52.084;5.090;2024-02-16T12:59:19;11.70;99.90
13606;DHT22;6874;52.084;5.090;2024-02-16T13:01:44;11.70;99.90
13606;DHT22;6874;52.084;5.090;2024-02-16T13:04:11;11.70;99.90
13606;DHT22;6874;52.084;5.090;2024-02-16T13:06:38;11.70;99.90
13606;DHT22;6874;52.084;5.090;2024-02-16T13:09:03;11.70;99.90
13606;DHT22;6874;52.084;5.090;2024-02-16T13:11:29;11.70;99.90
13606;DHT22;6874;52.084;5.090;2024-02-16T13:13:55;11.70;99.90
13606;DHT22;6874;52.084;5.090;2024-02-16T13:16:21;11.80;99.90
13606;DHT22;6874;52.084;5.090;2024-02-16T13:18:46;11.80;99.90
13606;DHT22;6874;52.084;5.090;2024-02-16T13:21:12;11.80;99.90
13606;DHT22;6874;52.084;5.090;2024-02-16T13:23:38;11.80;99.90
13606;DHT22;6874;52.084;5.090;2024-02-16T13:26:04;11.80;99.90
13606;DHT22;6874;52.084;5.090;2024-02-16T13:28:29;11.80;99.90
13606;DHT22;6874;52.084;5.090;2024-02-16T13:30:55;11.80;99.90
13606;DHT22;6874;52.084;5.090;2024-02-16T13:33:21;11.80;99.90
13606;DHT22;6874;52.084;5.090;2024-02-16T13:35:46;11.80;99.90
13606;DHT22;6874;52.084;5.090;2024-02-16T13:38:12;11.80;99.90
13606;DHT22;6874;52.084;5.090;2024-02-16T13:40:39;11.80;99.90
13606;DHT22;6874;52.084;5.090;2024-02-16T13:43:04;11.80;99.90
13606;DHT22;6874;52.084;5.090;2024-02-16T13:45:48;11.80;99.90
13606;DHT22;6874;52.084;5.090;2024-02-16T13:48:14;11.80;99.90
13606;DHT22;6874;52.084;5.090;2024-02-16T13:50:40;11.80;99.90
13606;DHT22;6874;52.084;5.090;2024-02-16T13:53:05;11.70;99.90
13606;DHT22;6874;52.084;5.090;2024-02-16T13:55:31;11.70;99.90
13606;DHT22;6874;52.084;5.090;2024-02-16T13:57:56;11.70;99.90
13606;DHT22;6874;52.084;5.090;2024-02-16T14:00:22;11.70;99.90
13606;DHT22;6874;52.084;5.090;2024-02-16T14:02:47;11.70;99.90
13606;DHT22;6874;52.084;5.090;2024-02-16T14:05:13;11.70;99.90
13606;DHT22;6874;52.084;5.090;2024-02-16T14:07:39;11.80;99.90
13606;DHT22;6874;52.084;5.090;2024-02-16T14:10:05;11.70;99.90
13606;DHT22;6874;52.084;5.090;2024-02-16T14:12:32;11.70;99.90
13606;DHT22;6874;52.084;5.090;2024-02-16T14:14:57;11.80;99.90
13606;DHT22;6874;52.084;5.090;2024-02-16T14:17:23;11.80;99.90
13606;DHT22;6874;52.084;5.090;2024-02-16T14:19:48;11.80;99.90
13606;DHT22;6874;52.084;5.090;2024-02-16T14:22:14;11.80;99.90
13606;DHT22;6874;52.084;5.090;2024-02-16T14:24:39;11.80;99.90
13606;DHT22;6874;52.084;5.090;2024-02-16T14:27:05;11.80;99.90
13606;DHT22;6874;52.084;5.090;2024-02-16T14:29:30;11.80;99.90
13606;DHT22;6874;52.084;5.090;2024-02-16T14:31:56;11.80;99.90
13606;DHT22;6874;52.084;5.090;2024-02-16T14:34:22;11.80;99.90
13606;DHT22;6874;52.084;5.090;2024-02-16T14:36:47;11.80;99.90
13606;DHT22;6874;52.084;5.090;2024-02-16T14:39:13;11.80;99.90
13606;DHT22;6874;52.084;5.090;2024-02-16T14:41:38;11.80;99.90
13606;DHT22;6874;52.084;5.090;2024-02-16T14:44:04;11.80;99.90
13606;DHT22;6874;52.084;5.090;2024-02-16T14:46:30;11.90;99.90
13606;DHT22;6874;52.084;5.090;2024-02-16T14:48:55;11.90;99.90
13606;DHT22;6874;52.084;5.090;2024-02-16T14:51:21;11.90;99.90
13606;DHT22;6874;52.084;5.090;2024-02-16T14:53:46;11.90;99.90
13606;DHT22;6874;52.084;5.090;2024-02-16T14:56:12;11.90;99.90
13606;DHT22;6874;52.084;5.090;2024-02-16T14:58:38;11.90;99.90
13606;DHT22;6874;52.084;5.090;2024-02-16T15:01:04;11.80;99.90
13606;DHT22;6874;52.084;5.090;2024-02-16T15:03:29;11.90;99.90
13606;DHT22;6874;52.084;5.090;2024-02-16T15:05:56;11.90;99.90
13606;DHT22;6874;52.084;5.090;2024-02-16T15:08:21;11.90;99.90
13606;DHT22;6874;52.084;5.090;2024-02-16T15:10:47;11.90;99.90
13606;DHT22;6874;52.084;5.090;2024-02-16T15:13:13;11.90;99.90
13606;DHT22;6874;52.084;5.090;2024-02-16T15:15:39;11.90;99.90
13606;DHT22;6874;52.084;5.090;2024-02-16T15:18:04;11.90;99.90
13606;DHT22;6874;52.084;5.090;2024-02-16T15:20:30;11.90;99.90
13606;DHT22;6874;52.084;5.090;2024-02-16T15:22:56;11.90;99.90
13606;DHT22;6874;52.084;5.090;2024-02-16T15:25:22;11.90;99.90
13606;DHT22;6874;52.084;5.090;2024-02-16T15:27:48;11.90;99.90
13606;DHT22;6874;52.084;5.090;2024-02-16T15:30:16;11.90;99.90
13606;DHT22;6874;52.084;5.090;2024-02-16T15:32:41;11.90;99.90
13606;DHT22;6874;52.084;5.090;2024-02-16T15:35:07;11.90;99.90
13606;DHT22;6874;52.084;5.090;2024-02-16T15:37:34;12.00;99.90
13606;DHT22;6874;52.084;5.090;2024-02-16T15:40:00;11.90;99.90